Wetterdaten: Donnerstag, 26.07.2007
Datum Zeit Temp. A. Feuchte A. Luftdruck Regen Wind Richtung Richtung Sonnenschein UV Solar Windben
26.07.2007 00:00 16,8 C 72 % 1013,0 hPa 0,0 mm 1,6 km/h (1 Bft) S-SO 157 0 min 0 UV-I 0 W/m 4,8 km/h (1 Bft)
26.07.2007 00:10 16,7 C 72 % 1013,0 hPa 0,0 mm 1,6 km/h (1 Bft) S-SO 157 0 min 0 UV-I 0 W/m 4,8 km/h (1 Bft)
26.07.2007 00:20 16,4 C 73 % 1013,1 hPa 0,0 mm 0,0 km/h (0 Bft) S-SO 157 0 min 0 UV-I 0 W/m 3,2 km/h (1 Bft)
26.07.2007 00:30 16,3 C 73 % 1012,9 hPa 0,0 mm 1,6 km/h (1 Bft) S-SO 157 0 min 0 UV-I 0 W/m 6,4 km/h (2 Bft)
26.07.2007 00:40 16,3 C 73 % 1012,9 hPa 0,0 mm 1,6 km/h (1 Bft) S 180 0 min 0 UV-I 0 W/m 3,2 km/h (1 Bft)
26.07.2007 00:50 16,2 C 73 % 1012,9 hPa 0,0 mm 1,6 km/h (1 Bft) S 180 0 min 0 UV-I 0 W/m 6,4 km/h (2 Bft)
26.07.2007 01:00 16,1 C 73 % 1012,9 hPa 0,0 mm 1,6 km/h (1 Bft) S-SO 157 0 min 0 UV-I 0 W/m 4,8 km/h (1 Bft)
26.07.2007 01:10 16,1 C 73 % 1012,7 hPa 0,0 mm 1,6 km/h (1 Bft) S-SO 157 0 min 0 UV-I 0 W/m 3,2 km/h (1 Bft)
26.07.2007 01:20 16,1 C 73 % 1012,6 hPa 0,0 mm 1,6 km/h (1 Bft) S-SO 157 0 min 0 UV-I 0 W/m 4,8 km/h (1 Bft)
26.07.2007 01:30 16,1 C 73 % 1012,6 hPa 0,0 mm 1,6 km/h (1 Bft) S 180 0 min 0 UV-I 0 W/m 4,8 km/h (1 Bft)
26.07.2007 01:40 15,8 C 74 % 1012,6 hPa 0,0 mm 1,6 km/h (1 Bft) S 180 0 min 0 UV-I 0 W/m 4,8 km/h (1 Bft)
26.07.2007 01:50 15,7 C 75 % 1012,5 hPa 0,0 mm 1,6 km/h (1 Bft) S 180 0 min 0 UV-I 0 W/m 3,2 km/h (1 Bft)
26.07.2007 02:00 15,4 C 76 % 1012,5 hPa 0,0 mm 1,6 km/h (1 Bft) S-SO 157 0 min 0 UV-I 0 W/m 3,2 km/h (1 Bft)
26.07.2007 02:10 15,5 C 75 % 1012,4 hPa 0,0 mm 1,6 km/h (1 Bft) S-SO 157 0 min 0 UV-I 0 W/m 4,8 km/h (1 Bft)
26.07.2007 02:20 15,6 C 74 % 1012,3 hPa 0,0 mm 1,6 km/h (1 Bft) S-SO 157 0 min 0 UV-I 0 W/m 6,4 km/h (2 Bft)
26.07.2007 02:30 15,6 C 74 % 1012,3 hPa 0,0 mm 0,0 km/h (0 Bft) S-SO 157 0 min 0 UV-I 0 W/m 3,2 km/h (1 Bft)
26.07.2007 02:40 15,4 C 75 % 1012,3 hPa 0,0 mm 0,0 km/h (0 Bft) S-SO 157 0 min 0 UV-I 0 W/m 3,2 km/h (1 Bft)
26.07.2007 02:50 15,3 C 76 % 1012,2 hPa 0,0 mm 0,0 km/h (0 Bft) S-SO 157 0 min 0 UV-I 0 W/m 1,6 km/h (1 Bft)
26.07.2007 03:00 15,2 C 77 % 1012,2 hPa 0,0 mm 0,0 km/h (0 Bft) S-SO 157 0 min 0 UV-I 0 W/m 1,6 km/h (1 Bft)
26.07.2007 03:10 15,1 C 77 % 1012,0 hPa 0,0 mm 0,0 km/h (0 Bft) N 0 0 min 0 UV-I 0 W/m 0,0 km/h (0 Bft)
26.07.2007 03:20 15,2 C 77 % 1012,0 hPa 0,0 mm 0,0 km/h (0 Bft) N 0 0 min 0 UV-I 0 W/m 0,0 km/h (0 Bft)
26.07.2007 03:30 15,1 C 76 % 1012,1 hPa 0,0 mm 0,0 km/h (0 Bft) S-SW 202 0 min 0 UV-I 0 W/m 4,8 km/h (1 Bft)
26.07.2007 03:40 15,8 C 72 % 1012,1 hPa 0,0 mm 0,0 km/h (0 Bft) S-SW 202 0 min 0 UV-I 0 W/m 3,2 km/h (1 Bft)
26.07.2007 03:50 16,6 C 70 % 1012,1 hPa 0,0 mm 1,6 km/h (1 Bft) S-SW 202 0 min 0 UV-I 0 W/m 4,8 km/h (1 Bft)
26.07.2007 04:00 16,7 C 69 % 1012,0 hPa 0,0 mm 1,6 km/h (1 Bft) S-SW 202 0 min 0 UV-I 0 W/m 3,2 km/h (1 Bft)
26.07.2007 04:10 16,8 C 69 % 1012,0 hPa 0,0 mm 0,0 km/h (0 Bft) S-SW 202 0 min 0 UV-I 0 W/m 4,8 km/h (1 Bft)
26.07.2007 04:20 16,8 C 69 % 1012,0 hPa 0,0 mm 0,0 km/h (0 Bft) S-SW 202 0 min 0 UV-I 0 W/m 3,2 km/h (1 Bft)
26.07.2007 04:30 16,7 C 70 % 1012,0 hPa 0,0 mm 1,6 km/h (1 Bft) S-SW 202 0 min 0 UV-I 0 W/m 3,2 km/h (1 Bft)
26.07.2007 04:40 16,6 C 70 % 1012,0 hPa 0,0 mm 0,0 km/h (0 Bft) S-SW 202 0 min 0 UV-I 0 W/m 3,2 km/h (1 Bft)
26.07.2007 04:50 16,7 C 70 % 1011,9 hPa 0,0 mm 1,6 km/h (1 Bft) S-SW 202 0 min 0 UV-I 0 W/m 4,8 km/h (1 Bft)
26.07.2007 05:00 16,7 C 70 % 1011,9 hPa 0,0 mm 0,0 km/h (0 Bft) S 180 0 min 0 UV-I 0 W/m 4,8 km/h (1 Bft)
26.07.2007 05:10 16,8 C 70 % 1011,9 hPa 0,0 mm 0,0 km/h (0 Bft) S-SW 202 0 min 0 UV-I 0 W/m 6,4 km/h (2 Bft)
26.07.2007 05:20 16,7 C 72 % 1012,0 hPa 0,0 mm 0,0 km/h (0 Bft) S 180 0 min 0 UV-I 0 W/m 4,8 km/h (1 Bft)
26.07.2007 05:30 16,3 C 74 % 1012,0 hPa 0,0 mm 0,0 km/h (0 Bft) S 180 0 min 0 UV-I 0 W/m 1,6 km/h (1 Bft)
26.07.2007 05:40 16,2 C 73 % 1012,0 hPa 0,0 mm 0,0 km/h (0 Bft) S 180 0 min 0 UV-I 0 W/m 3,2 km/h (1 Bft)
26.07.2007 05:50 16,3 C 73 % 1012,0 hPa 0,0 mm 0,0 km/h (0 Bft) S 180 0 min 0 UV-I 5 W/m 3,2 km/h (1 Bft)
26.07.2007 06:00 16,4 C 73 % 1011,9 hPa 0,0 mm 0,0 km/h (0 Bft) S 180 0 min 0 UV-I 7 W/m 3,2 km/h (1 Bft)
26.07.2007 06:10 16,4 C 72 % 1012,0 hPa 0,0 mm 0,0 km/h (0 Bft) S 180 0 min 0 UV-I 12 W/m 3,2 km/h (1 Bft)
26.07.2007 06:20 16,4 C 72 % 1012,1 hPa 0,0 mm 0,0 km/h (0 Bft) S 180 0 min 0 UV-I 19 W/m 3,2 km/h (1 Bft)
26.07.2007 06:30 16,4 C 74 % 1012,1 hPa 0,0 mm 0,0 km/h (0 Bft) S 180 0 min 0 UV-I 19 W/m 3,2 km/h (1 Bft)
26.07.2007 06:40 16,1 C 75 % 1012,0 hPa 0,0 mm 0,0 km/h (0 Bft) S 180 0 min 0 UV-I 23 W/m 6,4 km/h (2 Bft)
26.07.2007 06:50 16,0 C 75 % 1012,1 hPa 0,0 mm 0,0 km/h (0 Bft) S 180 0 min 0 UV-I 33 W/m 1,6 km/h (1 Bft)
26.07.2007 07:00 16,1 C 74 % 1012,0 hPa 0,0 mm 0,0 km/h (0 Bft) S 180 0 min 0 UV-I 53 W/m 3,2 km/h (1 Bft)
26.07.2007 07:10 16,5 C 73 % 1012,0 hPa 0,0 mm 1,6 km/h (1 Bft) S 180 0 min 0 UV-I 69 W/m 8,0 km/h (2 Bft)
26.07.2007 07:20 17,1 C 71 % 1011,8 hPa 0,0 mm 1,6 km/h (1 Bft) S 180 0 min 0 UV-I 97 W/m 6,4 km/h (2 Bft)
26.07.2007 07:30 17,7 C 71 % 1011,8 hPa 0,0 mm 1,6 km/h (1 Bft) S 180 10 min 1 UV-I 258 W/m 6,4 km/h (2 Bft)
26.07.2007 07:40 18,3 C 68 % 1011,8 hPa 0,0 mm 1,6 km/h (1 Bft) S 180 10 min 1 UV-I 257 W/m 8,0 km/h (2 Bft)
26.07.2007 07:50 18,7 C 67 % 1011,8 hPa 0,0 mm 3,2 km/h (1 Bft) S 180 10 min 1 UV-I 246 W/m 9,7 km/h (2 Bft)
26.07.2007 08:00 19,1 C 66 % 1011,7 hPa 0,0 mm 3,2 km/h (1 Bft) S-SW 202 10 min 1 UV-I 338 W/m 8,0 km/h (2 Bft)
26.07.2007 08:10 19,7 C 65 % 1011,6 hPa 0,0 mm 4,8 km/h (1 Bft) S 180 10 min 1 UV-I 343 W/m 11,3 km/h (2 Bft)
26.07.2007 08:20 20,2 C 63 % 1011,7 hPa 0,0 mm 3,2 km/h (1 Bft) S 180 10 min 1 UV-I 257 W/m 9,7 km/h (2 Bft)
26.07.2007 08:30 20,2 C 63 % 1011,7 hPa 0,0 mm 3,2 km/h (1 Bft) S 180 0 min 1 UV-I 148 W/m 14,5 km/h (3 Bft)
26.07.2007 08:40 20,1 C 62 % 1011,8 hPa 0,0 mm 3,2 km/h (1 Bft) S-SW 202 0 min 1 UV-I 204 W/m 9,7 km/h (2 Bft)
26.07.2007 08:50 20,3 C 63 % 1011,6 hPa 0,0 mm 3,2 km/h (1 Bft) S-SW 202 0 min 1 UV-I 234 W/m 9,7 km/h (2 Bft)
26.07.2007 09:00 20,4 C 62 % 1011,6 hPa 0,0 mm 3,2 km/h (1 Bft) S-SW 202 0 min 1 UV-I 241 W/m 9,7 km/h (2 Bft)
26.07.2007 09:10 20,4 C 62 % 1011,6 hPa 0,0 mm 3,2 km/h (1 Bft) S-SW 202 0 min 1 UV-I 144 W/m 14,5 km/h (3 Bft)
26.07.2007 09:20 20,3 C 62 % 1011,5 hPa 0,0 mm 4,8 km/h (1 Bft) S 180 0 min 1 UV-I 151 W/m 11,3 km/h (2 Bft)
26.07.2007 09:30 20,4 C 62 % 1011,6 hPa 0,0 mm 3,2 km/h (1 Bft) S-SW 202 0 min 1 UV-I 206 W/m 8,0 km/h (2 Bft)
26.07.2007 09:40 20,6 C 63 % 1011,6 hPa 0,0 mm 3,2 km/h (1 Bft) S-SW 202 0 min 2 UV-I 192 W/m 9,7 km/h (2 Bft)
26.07.2007 09:50 20,6 C 62 % 1011,5 hPa 0,0 mm 3,2 km/h (1 Bft) S 180 10 min 3 UV-I 591 W/m 9,7 km/h (2 Bft)
26.07.2007 10:00 21,4 C 58 % 1011,6 hPa 0,0 mm 4,8 km/h (1 Bft) S-SW 202 10 min 3 UV-I 673 W/m 17,7 km/h (3 Bft)
26.07.2007 10:10 21,9 C 58 % 1011,5 hPa 0,0 mm 3,2 km/h (1 Bft) S-SW 202 10 min 3 UV-I 591 W/m 9,7 km/h (2 Bft)
26.07.2007 10:20 22,6 C 55 % 1011,5 hPa 0,0 mm 4,8 km/h (1 Bft) S-SW 202 10 min 4 UV-I 708 W/m 14,5 km/h (3 Bft)
26.07.2007 10:30 22,5 C 54 % 1011,4 hPa 0,0 mm 6,4 km/h (2 Bft) S-SW 202 10 min 3 UV-I 410 W/m 20,9 km/h (4 Bft)
26.07.2007 10:40 22,4 C 53 % 1011,4 hPa 0,0 mm 4,8 km/h (1 Bft) W-SW 247 10 min 5 UV-I 773 W/m 14,5 km/h (3 Bft)
26.07.2007 10:50 23,1 C 53 % 1011,3 hPa 0,0 mm 6,4 km/h (2 Bft) S-SW 202 10 min 5 UV-I 761 W/m 17,7 km/h (3 Bft)
26.07.2007 11:00 23,3 C 52 % 1011,2 hPa 0,0 mm 6,4 km/h (2 Bft) SW 225 10 min 5 UV-I 735 W/m 20,9 km/h (4 Bft)
26.07.2007 11:10 23,2 C 52 % 1011,2 hPa 0,0 mm 9,7 km/h (2 Bft) W-SW 247 10 min 5 UV-I 675 W/m 25,7 km/h (4 Bft)
26.07.2007 11:20 23,0 C 52 % 1011,2 hPa 0,0 mm 8,0 km/h (2 Bft) S-SW 202 10 min 5 UV-I 635 W/m 19,3 km/h (3 Bft)
26.07.2007 11:30 23,3 C 52 % 1011,1 hPa 0,0 mm 8,0 km/h (2 Bft) SW 225 10 min 5 UV-I 749 W/m 20,9 km/h (4 Bft)
26.07.2007 11:40 23,4 C 51 % 1011,2 hPa 0,0 mm 9,7 km/h (2 Bft) W-SW 247 10 min 6 UV-I 796 W/m 22,5 km/h (4 Bft)
26.07.2007 11:50 23,4 C 51 % 1011,1 hPa 0,0 mm 9,7 km/h (2 Bft) S-SW 202 10 min 6 UV-I 821 W/m 25,7 km/h (4 Bft)
26.07.2007 12:00 22,9 C 53 % 1011,1 hPa 0,0 mm 8,0 km/h (2 Bft) S-SW 202 0 min 4 UV-I 431 W/m 20,9 km/h (4 Bft)
26.07.2007 12:10 23,0 C 53 % 1011,1 hPa 0,0 mm 6,4 km/h (2 Bft) W-SW 247 10 min 5 UV-I 575 W/m 22,5 km/h (4 Bft)
26.07.2007 12:20 23,2 C 53 % 1010,9 hPa 0,0 mm 4,8 km/h (1 Bft) S-SW 202 10 min 4 UV-I 524 W/m 17,7 km/h (3 Bft)
26.07.2007 12:30 23,3 C 52 % 1010,7 hPa 0,0 mm 6,4 km/h (2 Bft) W-SW 247 10 min 4 UV-I 529 W/m 25,7 km/h (4 Bft)
26.07.2007 12:40 23,2 C 53 % 1010,6 hPa 0,0 mm 8,0 km/h (2 Bft) W-SW 247 10 min 5 UV-I 659 W/m 20,9 km/h (4 Bft)
26.07.2007 12:50 23,6 C 50 % 1010,4 hPa 0,0 mm 6,4 km/h (2 Bft) W-SW 247 10 min 6 UV-I 802 W/m 17,7 km/h (3 Bft)
26.07.2007 13:00 23,9 C 49 % 1010,4 hPa 0,0 mm 6,4 km/h (2 Bft) W-SW 247 10 min 6 UV-I 807 W/m 19,3 km/h (3 Bft)
26.07.2007 13:10 24,2 C 49 % 1010,2 hPa 0,0 mm 6,4 km/h (2 Bft) W-SW 247 10 min 6 UV-I 786 W/m 27,4 km/h (4 Bft)
26.07.2007 13:20 23,9 C 49 % 1010,1 hPa 0,0 mm 6,4 km/h (2 Bft) S-SW 202 10 min 6 UV-I 473 W/m 16,1 km/h (3 Bft)
26.07.2007 13:30 24,3 C 46 % 1010,0 hPa 0,0 mm 6,4 km/h (2 Bft) SW 225 10 min 8 UV-I 1088 W/m 17,7 km/h (3 Bft)
26.07.2007 13:40 25,3 C 45 % 1010,0 hPa 0,0 mm 4,8 km/h (1 Bft) SW 225 10 min 7 UV-I 933 W/m 16,1 km/h (3 Bft)
26.07.2007 13:50 25,6 C 45 % 1009,9 hPa 0,0 mm 6,4 km/h (2 Bft) S-SW 202 10 min 7 UV-I 942 W/m 19,3 km/h (3 Bft)
26.07.2007 14:00 25,9 C 46 % 1009,8 hPa 0,0 mm 6,4 km/h (2 Bft) SW 225 10 min 8 UV-I 1120 W/m 17,7 km/h (3 Bft)
26.07.2007 14:10 25,9 C 45 % 1009,6 hPa 0,0 mm 8,0 km/h (2 Bft) W-SW 247 10 min 8 UV-I 1123 W/m 24,1 km/h (4 Bft)
26.07.2007 14:20 26,1 C 43 % 1009,4 hPa 0,0 mm 8,0 km/h (2 Bft) S-SW 202 10 min 8 UV-I 960 W/m 20,9 km/h (4 Bft)
26.07.2007 14:30 26,1 C 42 % 1009,2 hPa 0,0 mm 6,4 km/h (2 Bft) SW 225 10 min 7 UV-I 893 W/m 16,1 km/h (3 Bft)
26.07.2007 14:40 26,3 C 41 % 1009,2 hPa 0,0 mm 6,4 km/h (2 Bft) S 180 10 min 7 UV-I 872 W/m 24,1 km/h (4 Bft)
26.07.2007 14:50 26,8 C 39 % 1009,0 hPa 0,0 mm 6,4 km/h (2 Bft) S-SW 202 10 min 7 UV-I 933 W/m 14,5 km/h (3 Bft)
26.07.2007 15:00 27,1 C 39 % 1009,0 hPa 0,0 mm 8,0 km/h (2 Bft) SW 225 10 min 6 UV-I 944 W/m 19,3 km/h (3 Bft)
26.07.2007 15:10 26,5 C 41 % 1009,0 hPa 0,0 mm 4,8 km/h (1 Bft) S 180 10 min 6 UV-I 798 W/m 20,9 km/h (4 Bft)
26.07.2007 15:20 26,6 C 40 % 1008,9 hPa 0,0 mm 6,4 km/h (2 Bft) S-SW 202 10 min 6 UV-I 944 W/m 19,3 km/h (3 Bft)
26.07.2007 15:30 27,0 C 39 % 1008,7 hPa 0,0 mm 6,4 km/h (2 Bft) S-SW 202 10 min 6 UV-I 868 W/m 19,3 km/h (3 Bft)
26.07.2007 15:40 26,8 C 42 % 1008,6 hPa 0,0 mm 6,4 km/h (2 Bft) SW 225 10 min 5 UV-I 758 W/m 16,1 km/h (3 Bft)
26.07.2007 15:50 26,5 C 39 % 1008,4 hPa 0,0 mm 6,4 km/h (2 Bft) W-SW 247 10 min 5 UV-I 809 W/m 16,1 km/h (3 Bft)
26.07.2007 16:00 26,8 C 40 % 1008,3 hPa 0,0 mm 6,4 km/h (2 Bft) W-SW 247 10 min 5 UV-I 828 W/m 16,1 km/h (3 Bft)
26.07.2007 16:10 26,4 C 40 % 1008,2 hPa 0,0 mm 6,4 km/h (2 Bft) W-SW 247 10 min 4 UV-I 643 W/m 17,7 km/h (3 Bft)
26.07.2007 16:20 26,7 C 41 % 1008,2 hPa 0,0 mm 8,0 km/h (2 Bft) W-SW 247 10 min 4 UV-I 657 W/m 20,9 km/h (4 Bft)
26.07.2007 16:30 26,7 C 40 % 1008,0 hPa 0,0 mm 6,4 km/h (2 Bft) W-SW 247 10 min 4 UV-I 856 W/m 20,9 km/h (4 Bft)
26.07.2007 16:40 27,1 C 40 % 1008,1 hPa 0,0 mm 6,4 km/h (2 Bft) W-SW 247 10 min 4 UV-I 858 W/m 19,3 km/h (3 Bft)
26.07.2007 16:50 27,4 C 37 % 1007,8 hPa 0,0 mm 6,4 km/h (2 Bft) W 270 10 min 4 UV-I 795 W/m 20,9 km/h (4 Bft)
26.07.2007 17:00 27,4 C 36 % 1007,9 hPa 0,0 mm 6,4 km/h (2 Bft) W-SW 247 10 min 3 UV-I 701 W/m 16,1 km/h (3 Bft)
26.07.2007 17:10 27,2 C 39 % 1007,7 hPa 0,0 mm 6,4 km/h (2 Bft) SW 225 10 min 2 UV-I 441 W/m 22,5 km/h (4 Bft)
26.07.2007 17:20 26,9 C 38 % 1007,7 hPa 0,0 mm 8,0 km/h (2 Bft) W 270 10 min 2 UV-I 497 W/m 22,5 km/h (4 Bft)
26.07.2007 17:30 26,8 C 37 % 1007,6 hPa 0,0 mm 6,4 km/h (2 Bft) W-SW 247 10 min 2 UV-I 408 W/m 19,3 km/h (3 Bft)
26.07.2007 17:40 26,7 C 39 % 1007,5 hPa 0,0 mm 6,4 km/h (2 Bft) SW 225 10 min 2 UV-I 318 W/m 16,1 km/h (3 Bft)
26.07.2007 17:50 26,3 C 41 % 1007,5 hPa 0,0 mm 4,8 km/h (1 Bft) W-SW 247 0 min 1 UV-I 204 W/m 17,7 km/h (3 Bft)
26.07.2007 18:00 25,9 C 41 % 1007,4 hPa 0,0 mm 8,0 km/h (2 Bft) W 270 0 min 1 UV-I 236 W/m 16,1 km/h (3 Bft)
26.07.2007 18:10 25,7 C 43 % 1007,4 hPa 0,0 mm 6,4 km/h (2 Bft) W-SW 247 0 min 1 UV-I 211 W/m 14,5 km/h (3 Bft)
26.07.2007 18:20 25,5 C 44 % 1007,3 hPa 0,0 mm 6,4 km/h (2 Bft) W-SW 247 0 min 1 UV-I 190 W/m 19,3 km/h (3 Bft)
26.07.2007 18:30 25,4 C 44 % 1007,2 hPa 0,0 mm 8,0 km/h (2 Bft) W-SW 247 0 min 1 UV-I 190 W/m 19,3 km/h (3 Bft)
26.07.2007 18:40 25,3 C 45 % 1007,2 hPa 0,0 mm 6,4 km/h (2 Bft) W 270 0 min 1 UV-I 160 W/m 16,1 km/h (3 Bft)
26.07.2007 18:50 25,1 C 46 % 1007,1 hPa 0,0 mm 4,8 km/h (1 Bft) W-SW 247 0 min 1 UV-I 120 W/m 11,3 km/h (2 Bft)
26.07.2007 19:00 25,0 C 46 % 1007,2 hPa 0,0 mm 4,8 km/h (1 Bft) W-SW 247 0 min 1 UV-I 118 W/m 14,5 km/h (3 Bft)
26.07.2007 19:10 24,9 C 46 % 1007,2 hPa 0,0 mm 4,8 km/h (1 Bft) W-SW 247 0 min 0 UV-I 105 W/m 11,3 km/h (2 Bft)
26.07.2007 19:20 24,9 C 47 % 1007,1 hPa 0,0 mm 3,2 km/h (1 Bft) SW 225 0 min 0 UV-I 90 W/m 6,4 km/h (2 Bft)
26.07.2007 19:30 24,8 C 48 % 1007,0 hPa 0,0 mm 3,2 km/h (1 Bft) SW 225 0 min 0 UV-I 65 W/m 6,4 km/h (2 Bft)
26.07.2007 19:40 24,6 C 49 % 1007,0 hPa 0,0 mm 3,2 km/h (1 Bft) W-SW 247 0 min 0 UV-I 62 W/m 11,3 km/h (2 Bft)
26.07.2007 19:50 24,5 C 47 % 1007,0 hPa 0,0 mm 3,2 km/h (1 Bft) SW 225 0 min 0 UV-I 49 W/m 9,7 km/h (2 Bft)
26.07.2007 20:00 24,4 C 49 % 1006,9 hPa 0,0 mm 3,2 km/h (1 Bft) SW 225 0 min 0 UV-I 46 W/m 6,4 km/h (2 Bft)
26.07.2007 20:10 24,3 C 49 % 1006,9 hPa 0,0 mm 3,2 km/h (1 Bft) SW 225 0 min 0 UV-I 37 W/m 6,4 km/h (2 Bft)
26.07.2007 20:20 24,1 C 49 % 1006,8 hPa 0,0 mm 3,2 km/h (1 Bft) W 270 0 min 0 UV-I 37 W/m 8,0 km/h (2 Bft)
26.07.2007 20:30 24,0 C 49 % 1006,8 hPa 0,0 mm 3,2 km/h (1 Bft) W-SW 247 0 min 0 UV-I 26 W/m 8,0 km/h (2 Bft)
26.07.2007 20:40 23,7 C 51 % 1006,8 hPa 0,0 mm 1,6 km/h (1 Bft) S-SW 202 0 min 0 UV-I 16 W/m 4,8 km/h (1 Bft)
26.07.2007 20:50 23,5 C 51 % 1006,8 hPa 0,0 mm 1,6 km/h (1 Bft) SW 225 0 min 0 UV-I 11 W/m 4,8 km/h (1 Bft)
26.07.2007 21:00 23,4 C 52 % 1006,7 hPa 0,0 mm 1,6 km/h (1 Bft) SW 225 0 min 0 UV-I 7 W/m 3,2 km/h (1 Bft)
26.07.2007 21:10 23,2 C 53 % 1006,8 hPa 0,0 mm 0,0 km/h (0 Bft) SW 225 0 min 0 UV-I 7 W/m 1,6 km/h (1 Bft)
26.07.2007 21:20 22,9 C 54 % 1006,8 hPa 0,0 mm 0,0 km/h (0 Bft) SW 225 0 min 0 UV-I 0 W/m 3,2 km/h (1 Bft)
26.07.2007 21:30 22,7 C 55 % 1006,7 hPa 0,0 mm 0,0 km/h (0 Bft) SW 225 0 min 0 UV-I 0 W/m 4,8 km/h (1 Bft)
26.07.2007 21:40 22,4 C 57 % 1006,7 hPa 0,0 mm 0,0 km/h (0 Bft) SW 225 0 min 0 UV-I 0 W/m 1,6 km/h (1 Bft)
26.07.2007 21:50 22,1 C 62 % 1006,6 hPa 0,0 mm 0,0 km/h (0 Bft) SW 225 0 min 0 UV-I 0 W/m 3,2 km/h (1 Bft)
26.07.2007 22:00 21,5 C 62 % 1006,6 hPa 0,0 mm 0,0 km/h (0 Bft) N 0 0 min 0 UV-I 0 W/m 0,0 km/h (0 Bft)
26.07.2007 22:10 21,5 C 60 % 1006,7 hPa 0,0 mm 0,0 km/h (0 Bft) SW 225 0 min 0 UV-I 0 W/m 1,6 km/h (1 Bft)
26.07.2007 22:20 21,7 C 60 % 1006,5 hPa 0,0 mm 0,0 km/h (0 Bft) SW 225 0 min 0 UV-I 0 W/m 3,2 km/h (1 Bft)
26.07.2007 22:30 21,5 C 60 % 1006,5 hPa 0,0 mm 1,6 km/h (1 Bft) S-SW 202 0 min 0 UV-I 0 W/m 4,8 km/h (1 Bft)
26.07.2007 22:40 21,3 C 59 % 1006,5 hPa 0,0 mm 0,0 km/h (0 Bft) S 180 0 min 0 UV-I 0 W/m 3,2 km/h (1 Bft)
26.07.2007 22:50 21,3 C 56 % 1006,5 hPa 0,0 mm 1,6 km/h (1 Bft) S-SW 202 0 min 0 UV-I 0 W/m 3,2 km/h (1 Bft)
26.07.2007 23:00 21,4 C 56 % 1006,4 hPa 0,0 mm 1,6 km/h (1 Bft) S-SW 202 0 min 0 UV-I 0 W/m 4,8 km/h (1 Bft)
26.07.2007 23:10 21,4 C 56 % 1006,3 hPa 0,0 mm 1,6 km/h (1 Bft) S 180 0 min 0 UV-I 0 W/m 6,4 km/h (2 Bft)
26.07.2007 23:20 21,3 C 57 % 1006,2 hPa 0,0 mm 1,6 km/h (1 Bft) S 180 0 min 0 UV-I 0 W/m 4,8 km/h (1 Bft)
26.07.2007 23:30 21,2 C 56 % 1006,1 hPa 0,0 mm 3,2 km/h (1 Bft) S 180 0 min 0 UV-I 0 W/m 8,0 km/h (2 Bft)
26.07.2007 23:40 21,4 C 55 % 1006,0 hPa 0,0 mm 3,2 km/h (1 Bft) S 180 0 min 0 UV-I 0 W/m 11,3 km/h (2 Bft)
26.07.2007 23:50 21,4 C 55 % 1006,0 hPa 0,0 mm 3,2 km/h (1 Bft) S-SW 202 0 min 0 UV-I 0 W/m 8,0 km/h (2 Bft)
_ Min-Zeit 03:30 17:00 23:40 - 00:20 - - - - - 03:10
Minimum _ 15,0 C 36 % 1006,0 hPa - 0,0 km/h (0 Bft) - - - - - 0,0 km/h (0 Bft)
_ Max-Zeit 16:50 03:00 00:20 00:00 11:10 - - 07:30 13:30 14:10 13:10
Maximum _ 27,7 C 77 % 1013,1 hPa 0,0 mm 9,7 km/h
W-SW (2 Bft)
- - 10 min 8 UV-I 1123 W/m 27,4 km/h
N (4 Bft)
Durchschnitt _ 21,3 C 58 % 1010,0 hPa #0,0 mm 3,4 km/h (1 Bft) S-SW - #8:50 h 4 UV-I 441 W/m 10,6 km/h (2 Bft)